createdAt,value
2023-03-04T00:02:26.948Z,8.90
2023-03-04T00:05:13.215Z,9.00
2023-03-04T00:07:59.312Z,10.10
2023-03-04T00:10:45.030Z,8.80
2023-03-04T00:13:31.230Z,8.90
2023-03-04T00:16:18.636Z,9.10
2023-03-04T00:19:06.141Z,9.30
2023-03-04T00:21:51.952Z,8.30
2023-03-04T00:24:38.068Z,9.30
2023-03-04T00:27:24.054Z,9.20
2023-03-04T00:30:10.120Z,9.00
2023-03-04T00:32:56.284Z,9.10
2023-03-04T00:35:43.668Z,9.00
2023-03-04T00:38:31.032Z,6.90
2023-03-04T00:41:16.912Z,7.20
2023-03-04T00:44:02.836Z,8.50
2023-03-04T00:46:49.434Z,8.90
2023-03-04T00:49:35.248Z,8.80
2023-03-04T00:52:21.240Z,8.80
2023-03-04T00:55:07.756Z,8.90
2023-03-04T00:57:53.757Z,8.90
2023-03-04T01:00:39.695Z,9.00
2023-03-04T01:03:27.218Z,8.90
2023-03-04T01:06:13.688Z,7.00
2023-03-04T01:08:59.861Z,9.00
2023-03-04T01:11:46.363Z,9.10
2023-03-04T01:14:32.862Z,9.20
2023-03-04T01:17:18.793Z,8.70
2023-03-04T01:20:06.996Z,8.60
2023-03-04T01:22:55.198Z,8.20
2023-03-04T01:25:41.272Z,7.80
2023-03-04T01:28:27.408Z,8.80
2023-03-04T01:31:13.868Z,6.90
2023-03-04T01:33:59.667Z,8.60
2023-03-04T01:36:45.584Z,8.30
2023-03-04T01:39:31.078Z,7.40
2023-03-04T01:42:25.115Z,8.20
2023-03-04T01:45:18.922Z,8.30
2023-03-04T01:48:05.223Z,8.20
2023-03-04T01:50:50.888Z,8.10
2023-03-04T01:53:37.249Z,6.10
2023-03-04T01:56:24.482Z,6.40
2023-03-04T01:59:15.096Z,8.40
2023-03-04T02:02:01.360Z,8.30
2023-03-04T02:04:48.443Z,8.20
2023-03-04T02:07:34.321Z,8.10
2023-03-04T02:10:20.913Z,6.80
2023-03-04T02:13:06.973Z,6.70
2023-03-04T02:15:52.912Z,8.00
2023-03-04T02:18:38.757Z,8.30
2023-03-04T02:21:34.442Z,8.30
2023-03-04T02:24:24.997Z,8.40
2023-03-04T02:27:10.905Z,8.40
2023-03-04T02:29:58.910Z,8.20
2023-03-04T02:32:46.629Z,6.20
2023-03-04T02:35:33.441Z,8.10
2023-03-04T02:38:19.539Z,8.00
2023-03-04T02:41:06.947Z,6.40
2023-03-04T02:43:54.015Z,8.20
2023-03-04T02:46:40.014Z,8.20
2023-03-04T02:49:28.416Z,8.30
2023-03-04T02:52:18.185Z,8.30
2023-03-04T02:55:04.145Z,7.10
2023-03-04T02:57:49.851Z,8.30
2023-03-04T03:00:36.948Z,8.30
2023-03-04T03:03:24.110Z,6.60
2023-03-04T03:06:10.387Z,8.10
2023-03-04T03:08:56.616Z,8.10
2023-03-04T03:11:43.296Z,8.20
2023-03-04T03:14:29.896Z,7.70
2023-03-04T03:17:15.991Z,7.50
2023-03-04T03:20:01.648Z,8.30
2023-03-04T03:22:47.896Z,7.80
2023-03-04T03:25:34.035Z,8.30
2023-03-04T03:28:20.054Z,7.60
2023-03-04T03:31:05.741Z,8.30
2023-03-04T03:33:51.615Z,7.10
2023-03-04T03:36:37.074Z,7.60
2023-03-04T03:39:22.836Z,8.40
2023-03-04T03:42:08.517Z,6.30
2023-03-04T03:44:54.272Z,8.40
2023-03-04T03:47:39.812Z,7.00
2023-03-04T03:50:25.427Z,8.00
2023-03-04T03:53:11.457Z,6.00
2023-03-04T03:55:57.248Z,7.90
2023-03-04T03:58:43.145Z,7.90
2023-03-04T04:01:28.982Z,7.80
2023-03-04T04:04:14.790Z,7.00
2023-03-04T04:07:00.649Z,7.50
2023-03-04T04:09:46.249Z,7.30
2023-03-04T04:12:32.341Z,8.10
2023-03-04T04:15:18.288Z,7.60
2023-03-04T04:18:03.800Z,7.30
2023-03-04T04:20:49.533Z,8.40
2023-03-04T04:23:35.106Z,8.30
2023-03-04T04:26:20.676Z,8.30
2023-03-04T04:29:06.473Z,7.00
2023-03-04T04:31:52.450Z,6.70
2023-03-04T04:34:38.477Z,8.00
2023-03-04T04:37:24.509Z,7.80
2023-03-04T04:40:10.471Z,7.80
2023-03-04T04:42:57.033Z,6.70
2023-03-04T04:45:42.624Z,7.70
2023-03-04T04:48:28.212Z,7.70
2023-03-04T04:51:14.149Z,7.10
2023-03-04T04:54:00.506Z,7.70
2023-03-04T04:56:46.674Z,6.50
2023-03-04T04:59:33.435Z,5.90
2023-03-04T05:02:19.124Z,7.70
2023-03-04T05:05:05.683Z,7.70
2023-03-04T05:07:51.590Z,7.70
2023-03-04T05:10:37.412Z,7.70
2023-03-04T05:13:23.755Z,7.00
2023-03-04T05:16:09.829Z,6.60
2023-03-04T05:18:55.564Z,6.00
2023-03-04T05:21:41.263Z,7.50
2023-03-04T05:24:27.084Z,7.40
2023-03-04T05:27:12.861Z,7.40
2023-03-04T05:30:01.378Z,7.30
2023-03-04T05:32:47.238Z,7.30
2023-03-04T05:35:33.084Z,7.20
2023-03-04T05:38:19.724Z,7.20
2023-03-04T05:41:06.557Z,7.20
2023-03-04T05:43:52.467Z,6.60
2023-03-04T05:46:38.067Z,5.30
2023-03-04T05:49:24.152Z,7.20
2023-03-04T05:52:10.360Z,7.10
2023-03-04T05:54:56.015Z,5.10
2023-03-04T05:57:41.848Z,7.10
2023-03-04T06:00:27.768Z,7.10
2023-03-04T06:03:20.241Z,5.80
2023-03-04T06:06:06.604Z,7.20
2023-03-04T06:08:52.520Z,6.60
2023-03-04T06:11:38.198Z,7.30
2023-03-04T06:14:24.654Z,7.20
2023-03-04T06:17:10.500Z,5.40
2023-03-04T06:19:56.335Z,7.20
2023-03-04T06:22:42.850Z,5.10
2023-03-04T06:25:47.141Z,7.30
2023-03-04T06:28:32.578Z,6.10
2023-03-04T06:31:18.402Z,8.10
2023-03-04T06:34:03.994Z,7.40
2023-03-04T06:36:49.841Z,7.50
2023-03-04T06:39:36.064Z,7.40
2023-03-04T06:42:21.764Z,6.60
2023-03-04T06:45:18.534Z,6.40
2023-03-04T06:48:06.154Z,7.50
2023-03-04T06:50:52.673Z,6.00
2023-03-04T06:53:39.093Z,8.20
2023-03-04T06:59:24.678Z,5.60
2023-03-04T07:11:19.928Z,7.60
2023-03-04T07:20:07.620Z,9.10
2023-03-04T07:25:59.724Z,8.90
2023-03-04T07:28:48.733Z,8.80
2023-03-04T07:31:35.776Z,6.80
2023-03-04T07:34:21.943Z,8.20
2023-03-04T07:37:08.945Z,9.40
2023-03-04T07:39:55.263Z,8.80
2023-03-04T07:42:41.875Z,8.70
2023-03-04T07:45:31.849Z,9.20
2023-03-04T07:48:18.272Z,9.90
2023-03-04T07:51:05.751Z,10.30
2023-03-04T07:53:52.670Z,10.60
2023-03-04T07:56:39.613Z,10.50
2023-03-04T07:59:26.623Z,10.10
2023-03-04T08:02:13.261Z,11.40
2023-03-04T08:04:59.976Z,10.60
2023-03-04T08:07:47.918Z,12.60
2023-03-04T08:21:13.676Z,17.10
2023-03-04T08:24:03.104Z,18.60
2023-03-04T08:26:49.827Z,18.50
2023-03-04T08:32:41.852Z,17.20
2023-03-04T08:35:28.056Z,17.90
2023-03-04T08:38:15.730Z,16.50
2023-03-04T08:41:01.627Z,17.00
2023-03-04T08:43:48.728Z,16.30
2023-03-04T08:46:36.815Z,14.80
2023-03-04T08:52:24.133Z,16.40
2023-03-04T08:58:12.703Z,17.90
2023-03-04T09:01:00.484Z,16.00
2023-03-04T09:03:48.976Z,16.00
2023-03-04T09:06:38.084Z,16.50
2023-03-04T09:09:28.923Z,15.90
2023-03-04T09:18:15.114Z,13.70
2023-03-04T09:21:01.020Z,15.20
2023-03-04T09:23:48.393Z,15.10
2023-03-04T09:26:38.381Z,13.80
2023-03-04T09:29:25.303Z,14.80
2023-03-04T09:32:11.901Z,17.60
2023-03-04T09:35:01.984Z,19.30
2023-03-04T09:37:56.877Z,19.30
2023-03-04T09:40:49.245Z,18.20
2023-03-04T09:43:35.812Z,19.80
2023-03-04T09:46:42.182Z,17.60
2023-03-04T09:49:28.539Z,18.90
2023-03-04T09:52:29.144Z,20.20
2023-03-04T09:55:21.872Z,18.90
2023-03-04T09:58:16.904Z,19.80
2023-03-04T10:01:08.810Z,17.60
2023-03-04T10:03:58.199Z,19.40
2023-03-04T10:06:47.350Z,18.00
2023-03-04T10:09:44.420Z,16.50
2023-03-04T10:12:33.222Z,17.00
2023-03-04T10:15:26.159Z,17.70
2023-03-04T10:18:15.043Z,17.80
2023-03-04T10:21:21.152Z,19.80
2023-03-04T10:24:14.927Z,17.80
2023-03-04T10:27:05.346Z,15.50
2023-03-04T10:29:51.996Z,14.80
2023-03-04T10:32:45.557Z,14.00
2023-03-04T10:38:42.480Z,13.90
2023-03-04T10:41:30.576Z,14.00
2023-03-04T10:47:19.113Z,13.50
2023-03-04T10:50:07.542Z,13.70
2023-03-04T10:52:55.785Z,13.40
2023-03-04T10:55:45.098Z,13.80
2023-03-04T10:58:31.145Z,13.40
2023-03-04T11:01:25.394Z,12.40
2023-03-04T11:04:21.694Z,13.60
2023-03-04T11:07:16.486Z,14.00
2023-03-04T11:10:23.997Z,13.20
2023-03-04T11:13:17.290Z,13.70
2023-03-04T11:16:07.077Z,13.50
2023-03-04T11:18:55.306Z,13.60
2023-03-04T11:21:42.167Z,13.90
2023-03-04T11:24:37.434Z,14.30
2023-03-04T11:27:34.887Z,14.40
2023-03-04T11:30:30.361Z,14.30
2023-03-04T11:33:30.344Z,14.40
2023-03-04T11:36:17.113Z,13.60
2023-03-04T11:39:14.216Z,16.00
2023-03-04T11:42:06.617Z,14.10
2023-03-04T11:44:52.720Z,13.90
2023-03-04T11:47:38.765Z,13.00
2023-03-04T11:50:47.088Z,13.90
2023-03-04T11:53:51.523Z,13.90
2023-03-04T11:56:42.636Z,13.50
2023-03-04T11:59:47.971Z,14.50
2023-03-04T12:02:40.353Z,12.70
2023-03-04T12:05:28.599Z,14.30
2023-03-04T12:08:31.405Z,14.80
2023-03-04T12:11:50.896Z,15.20
2023-03-04T12:14:59.505Z,14.60
2023-03-04T12:18:16.422Z,14.40
2023-03-04T12:21:14.555Z,14.20
2023-03-04T12:24:22.498Z,14.30
2023-03-04T12:27:26.403Z,14.30
2023-03-04T12:30:27.866Z,14.40
2023-03-04T12:33:13.883Z,14.60
2023-03-04T12:36:16.313Z,15.10
2023-03-04T12:39:02.611Z,15.40
2023-03-04T12:41:58.415Z,15.70
2023-03-04T12:44:54.454Z,15.10
2023-03-04T12:48:02.090Z,15.50
2023-03-04T12:51:08.007Z,15.60
2023-03-04T12:54:08.216Z,14.90
2023-03-04T12:57:08.527Z,14.90
2023-03-04T13:00:24.429Z,15.00
2023-03-04T13:03:41.447Z,15.40
2023-03-04T13:06:38.443Z,15.40
2023-03-04T13:09:34.444Z,15.40
2023-03-04T13:12:22.527Z,15.70
2023-03-04T13:15:09.218Z,15.30
2023-03-04T13:18:14.543Z,15.90
2023-03-04T13:21:19.682Z,16.20
2023-03-04T13:24:25.417Z,15.80
2023-03-04T13:27:31.233Z,14.20
2023-03-04T13:30:33.606Z,15.90
2023-03-04T13:33:23.024Z,16.00
2023-03-04T13:36:44.316Z,15.90
2023-03-04T13:39:31.314Z,16.00
2023-03-04T13:42:35.930Z,16.00
2023-03-04T13:45:30.873Z,16.10
2023-03-04T13:48:33.441Z,15.60
2023-03-04T13:51:33.977Z,15.90
2023-03-04T13:54:19.968Z,16.00
2023-03-04T13:57:19.953Z,16.20
2023-03-04T14:00:08.705Z,16.10
2023-03-04T14:02:55.698Z,16.20
2023-03-04T14:05:42.011Z,15.50
2023-03-04T14:08:28.546Z,16.10
2023-03-04T14:11:22.294Z,16.10
2023-03-04T14:14:15.018Z,15.10
2023-03-04T14:17:04.905Z,15.20
2023-03-04T14:19:53.937Z,15.60
2023-03-04T14:22:41.292Z,15.40
2023-03-04T14:25:36.872Z,15.70
2023-03-04T14:28:23.721Z,15.80
2023-03-04T14:31:17.371Z,15.20
2023-03-04T14:34:03.449Z,15.60
2023-03-04T14:36:50.611Z,15.60
2023-03-04T14:39:38.497Z,15.80
2023-03-04T14:42:45.154Z,15.40
2023-03-04T14:45:37.234Z,15.20
2023-03-04T14:48:35.571Z,15.50
2023-03-04T14:51:47.250Z,15.60
2023-03-04T14:54:40.701Z,16.00
2023-03-04T14:57:32.547Z,15.90
2023-03-04T15:00:41.739Z,15.80
2023-03-04T15:03:33.111Z,16.20
2023-03-04T15:06:21.646Z,15.40
2023-03-04T15:09:18.895Z,15.70
2023-03-04T15:12:10.567Z,15.60
2023-03-04T15:15:00.501Z,14.90
2023-03-04T15:17:53.053Z,14.80
2023-03-04T15:20:39.150Z,14.90
2023-03-04T15:23:27.078Z,14.70
2023-03-04T15:26:14.306Z,14.90
2023-03-04T15:29:00.754Z,15.10
2023-03-04T15:31:50.592Z,15.40
2023-03-04T15:34:37.010Z,15.40
2023-03-04T15:37:28.719Z,15.60
2023-03-04T15:40:27.931Z,14.40
2023-03-04T15:43:20.293Z,15.50
2023-03-04T15:46:06.198Z,15.70
2023-03-04T15:48:52.681Z,15.40
2023-03-04T15:51:39.605Z,14.80
2023-03-04T15:54:34.737Z,15.10
2023-03-04T15:57:28.038Z,15.40
2023-03-04T16:00:18.518Z,15.40
2023-03-04T16:03:07.277Z,15.50
2023-03-04T16:05:55.144Z,15.50
2023-03-04T16:08:51.091Z,15.40
2023-03-04T16:11:48.131Z,15.10
2023-03-04T16:14:38.491Z,15.00
2023-03-04T16:17:33.099Z,15.20
2023-03-04T16:24:21.645Z,13.50
2023-03-04T16:27:14.604Z,15.20
2023-03-04T16:30:00.966Z,15.20
2023-03-04T16:32:47.157Z,15.20
2023-03-04T16:35:39.179Z,15.10
2023-03-04T16:38:28.941Z,15.10
2023-03-04T16:41:17.350Z,15.10
2023-03-04T16:44:04.225Z,14.80
2023-03-04T16:46:51.410Z,14.40
2023-03-04T16:49:40.218Z,14.30
2023-03-04T16:52:30.478Z,14.40
2023-03-04T16:55:23.341Z,14.40
2023-03-04T16:58:10.881Z,14.30
2023-03-04T17:00:57.081Z,14.10
2023-03-04T17:03:43.771Z,14.30
2023-03-04T17:06:32.190Z,14.30
2023-03-04T17:09:18.722Z,14.30
2023-03-04T17:12:11.257Z,14.40
2023-03-04T17:14:57.248Z,14.30
2023-03-04T17:17:44.761Z,14.20
2023-03-04T17:20:31.081Z,14.10
2023-03-04T17:23:17.766Z,14.00
2023-03-04T17:26:04.260Z,14.00
2023-03-04T17:28:52.545Z,14.00
2023-03-04T17:31:38.945Z,13.90
2023-03-04T17:34:25.877Z,13.90
2023-03-04T17:37:12.037Z,14.00
2023-03-04T17:39:58.088Z,13.90
2023-03-04T17:42:44.547Z,13.80
2023-03-04T17:45:31.517Z,13.70
2023-03-04T17:48:17.478Z,13.90
2023-03-04T17:51:04.458Z,13.90
2023-03-04T17:53:50.451Z,13.60
2023-03-04T17:56:39.669Z,13.70
2023-03-04T17:59:26.096Z,13.90
2023-03-04T18:02:16.298Z,13.90
2023-03-04T18:05:06.821Z,13.80
2023-03-04T18:07:54.187Z,13.80
2023-03-04T18:10:40.186Z,13.70
2023-03-04T18:13:26.662Z,13.00
2023-03-04T18:16:15.311Z,13.60
2023-03-04T18:19:02.219Z,13.70
2023-03-04T18:21:48.393Z,13.80
2023-03-04T18:24:34.563Z,13.70
2023-03-04T18:27:21.067Z,13.50
2023-03-04T18:30:08.866Z,13.40
2023-03-04T18:32:57.275Z,12.80
2023-03-04T18:35:43.358Z,12.60
2023-03-04T18:38:30.152Z,12.60
2023-03-04T18:41:18.021Z,12.50
2023-03-04T18:44:05.940Z,12.80
2023-03-04T18:46:56.375Z,12.80
2023-03-04T18:49:48.144Z,12.60
2023-03-04T18:52:34.844Z,12.60
2023-03-04T18:55:21.314Z,12.60
2023-03-04T18:58:07.798Z,12.20
2023-03-04T19:00:55.001Z,12.10
2023-03-04T19:03:41.970Z,12.10
2023-03-04T19:06:30.679Z,11.90
2023-03-04T19:09:17.055Z,11.90
2023-03-04T19:12:03.880Z,11.90
2023-03-04T19:14:54.579Z,11.80
2023-03-04T19:17:41.574Z,11.70
2023-03-04T19:20:27.381Z,11.60
2023-03-04T19:23:16.166Z,11.50
2023-03-04T19:26:08.385Z,11.40
2023-03-04T19:29:17.413Z,11.30
2023-03-04T19:32:06.712Z,11.10
2023-03-04T19:35:07.157Z,11.10
2023-03-04T19:37:56.997Z,11.00
2023-03-04T19:40:56.589Z,9.50
2023-03-04T19:43:59.501Z,10.80
2023-03-04T19:46:46.093Z,10.60
2023-03-04T19:49:33.057Z,10.70
2023-03-04T19:52:21.381Z,10.70
2023-03-04T19:55:11.843Z,9.60
2023-03-04T19:58:02.981Z,10.50
2023-03-04T20:00:50.602Z,8.50
2023-03-04T20:03:36.840Z,8.90
2023-03-04T20:06:24.223Z,11.10
2023-03-04T20:09:10.648Z,10.40
2023-03-04T20:11:59.704Z,10.40
2023-03-04T20:14:46.782Z,10.40
2023-03-04T20:17:33.130Z,10.40
2023-03-04T20:20:19.100Z,10.30
2023-03-04T20:23:06.342Z,10.30
2023-03-04T20:25:54.129Z,8.40
2023-03-04T20:28:45.115Z,10.00
2023-03-04T20:34:42.097Z,9.90
2023-03-04T20:37:28.745Z,9.90
2023-03-04T20:40:26.338Z,9.80
2023-03-04T20:43:17.905Z,9.70
2023-03-04T20:46:48.149Z,9.70
2023-03-04T20:49:34.581Z,9.60
2023-03-04T20:52:21.796Z,9.50
2023-03-04T20:55:08.224Z,9.60
2023-03-04T20:57:55.092Z,9.60
2023-03-04T21:00:43.356Z,9.60
2023-03-04T21:03:29.802Z,9.50
2023-03-04T21:06:17.475Z,9.60
2023-03-04T21:09:10.472Z,9.60
2023-03-04T21:12:00.813Z,9.40
2023-03-04T21:14:48.171Z,9.40
2023-03-04T21:17:35.605Z,9.40
2023-03-04T21:20:22.281Z,9.20
2023-03-04T21:23:09.095Z,9.10
2023-03-04T21:25:55.927Z,9.20
2023-03-04T21:28:46.834Z,8.90
2023-03-04T21:31:43.192Z,8.60
2023-03-04T21:34:41.212Z,9.10
2023-03-04T21:37:30.088Z,9.20
2023-03-04T21:40:17.328Z,9.20
2023-03-04T21:43:03.954Z,9.10
2023-03-04T21:46:10.269Z,9.00
2023-03-04T21:48:56.740Z,9.00
2023-03-04T21:51:44.944Z,9.10
2023-03-04T21:54:32.952Z,9.10
2023-03-04T21:57:20.390Z,9.00
2023-03-04T22:00:07.776Z,8.60
2023-03-04T22:03:02.788Z,8.90
2023-03-04T22:05:49.291Z,8.70
2023-03-04T22:08:36.111Z,8.80
2023-03-04T22:11:23.936Z,8.70
2023-03-04T22:14:10.958Z,8.70
2023-03-04T22:16:57.488Z,8.80
2023-03-04T22:19:43.402Z,8.80
2023-03-04T22:22:30.577Z,8.70
2023-03-04T22:25:16.671Z,8.60
2023-03-04T22:28:04.013Z,8.50
2023-03-04T22:30:50.649Z,8.60
2023-03-04T22:33:37.422Z,8.60
2023-03-04T22:36:23.516Z,8.50
2023-03-04T22:39:12.493Z,8.50
2023-03-04T22:41:59.485Z,8.60
2023-03-04T22:44:46.224Z,8.60
2023-03-04T22:47:32.350Z,8.60
2023-03-04T22:50:19.738Z,8.60
2023-03-04T22:53:08.698Z,8.70
2023-03-04T22:55:59.090Z,8.50
2023-03-04T22:58:45.658Z,8.50
2023-03-04T23:01:32.079Z,8.40
2023-03-04T23:04:18.201Z,8.20
2023-03-04T23:07:04.542Z,8.20
2023-03-04T23:09:50.851Z,8.20
2023-03-04T23:12:37.354Z,8.20
2023-03-04T23:15:24.404Z,8.00
2023-03-04T23:18:10.588Z,8.00
2023-03-04T23:20:56.991Z,8.00
2023-03-04T23:23:43.373Z,8.10
2023-03-04T23:26:34.570Z,8.10
2023-03-04T23:29:20.518Z,8.20
2023-03-04T23:32:06.639Z,8.20
2023-03-04T23:34:53.872Z,8.20
2023-03-04T23:37:39.815Z,8.30
2023-03-04T23:40:25.718Z,8.10
2023-03-04T23:43:11.771Z,8.00
2023-03-04T23:45:58.605Z,7.90
2023-03-04T23:48:48.039Z,8.10
2023-03-04T23:51:35.030Z,7.90
2023-03-04T23:54:21.120Z,8.00
2023-03-04T23:57:07.346Z,8.00
2023-03-04T23:59:53.749Z,7.90
